Latest Weather Observations for East Sale Airport

IDV60801

Issued at 9:52 pm EST Thursday 20 June 2019 (issued every 10 minutes, with the page automatically refreshed every 10 minutes)

About weather observations | Map of weather stations | Latest weather observations for VIC | Other Formats
Station Details ID: 085314 Name: EAST SALE AIRPORT Lat: -38.10 Lon: 147.14 Height: 5.3 m
Data from the previous 72 hours. | See also: Recent months at East Sale Airport
Date/Time
EST
Temp
°C
App
Temp
°C
Dew
Point
°C
Rel
Hum
%
Delta-T
°C
Wind Press
QNH
hPa
Press
MSL
hPa
Rain since
9am
mm
Dir  Spd
km/h
Gust
km/h
Spd
kts
Gust
kts
20/09:30pm 7.0 2.7 5.3 89 0.8 W 17 24 9 13 1024.9 - 0.4
20/09:00pm 7.2 3.0 5.5 89 0.8 W 17 20 9 11 1024.9 - 0.4
20/08:30pm 7.1 2.8 5.1 87 0.9 W 17 24 9 13 1024.9 - 0.4
20/08:00pm 7.8 3.2 5.4 85 1.1 W 19 26 10 14 1024.6 - 0.4
20/07:30pm 8.3 4.1 5.8 84 1.1 W 17 26 9 14 1024.5 - 0.4
20/07:00pm 8.8 4.6 5.9 82 1.3 W 17 26 9 14 1024.3 - 0.4
20/06:30pm 8.8 5.5 6.4 85 1.1 WNW 13 17 7 9 1024.0 - 0.4
20/06:00pm 8.7 5.5 6.7 87 0.9 W 13 17 7 9 1023.8 - 0.4
20/05:51pm 8.5 4.4 6.3 86 1.0 SW 17 26 9 14 1023.8 - 0.4
20/05:30pm 9.5 6.2 6.2 80 1.5 W 13 19 7 10 1023.4 - 0.0
20/05:00pm 9.9 6.2 6.1 77 1.7 WSW 15 20 8 11 1023.3 - 0.0
20/04:30pm 10.2 6.0 5.6 73 2.1 W 17 22 9 12 1023.1 - 0.0
20/04:00pm 11.1 6.5 5.4 68 2.6 W 19 24 10 13 1022.9 - 0.0
20/03:30pm 11.5 6.9 5.4 66 2.8 WNW 19 26 10 14 1022.9 - 0.0
20/03:00pm 11.9 7.0 5.3 64 3.0 W 20 28 11 15 1022.9 - 0.0
20/02:30pm 11.9 7.3 5.8 66 2.8 W 19 26 10 14 1022.9 - 0.0
20/02:00pm 12.3 8.2 6.4 67 2.8 W 17 24 9 13 1023.0 - 0.0
20/01:30pm 11.8 7.4 6.5 70 2.5 W 19 24 10 13 1023.2 - 0.0
20/01:00pm 11.7 7.3 6.6 71 2.4 W 19 24 10 13 1023.6 - 0.0
20/12:30pm 11.0 6.4 6.4 73 2.2 W 20 26 11 14 1024.1 - 0.0
20/12:00pm 11.1 6.8 7.0 76 1.9 WNW 19 26 10 14 1024.6 - 0.0
20/11:30am 10.6 6.4 7.3 80 1.6 WNW 19 26 10 14 1025.0 - 0.0
20/11:00am 9.9 5.9 6.8 81 1.4 WNW 17 28 9 15 1025.3 - 0.0
20/10:30am 9.8 5.9 7.2 84 1.2 W 17 22 9 12 1025.5 - 0.0
20/10:00am 9.4 5.0 7.5 88 0.9 WNW 20 28 11 15 1025.6 - 0.0
20/09:30am 7.5 3.9 6.8 95 0.3 WNW 15 20 8 11 1025.6 - 0.0
20/09:00am 6.3 2.1 5.7 96 0.3 WNW 17 20 9 11 1025.6 - 0.2
20/08:30am 5.9 2.0 5.3 96 0.3 WNW 15 20 8 11 1025.5 - 0.2
20/08:00am 5.7 1.8 5.4 98 0.1 WNW 15 19 8 10 1025.5 - 0.2
20/07:30am 4.2 0.8 3.9 98 0.1 WNW 11 15 6 8 1025.4 - 0.2
20/07:00am 3.4 -0.9 3.3 99 0.0 NW 15 17 8 9 1025.3 - 0.2
20/06:30am 2.8 -1.2 2.7 99 0.0 NW 13 15 7 8 1025.2 - 0.2
20/06:00am 2.8 -1.2 2.7 99 0.0 WNW 13 17 7 9 1025.0 - 0.2
20/05:30am 2.1 -2.4 2.0 99 0.0 NW 15 17 8 9 1024.9 - 0.0
20/05:00am 1.9 -2.7 1.8 99 0.0 NW 15 17 8 9 1024.6 - 0.0
20/04:30am 2.1 -2.0 2.0 99 0.0 NW 13 15 7 8 1024.6 - 0.0
20/04:00am 2.2 -1.5 2.1 99 0.0 NW 11 13 6 7 1024.7 - 0.0
20/03:30am 2.5 -2.0 2.4 99 0.0 NW 15 17 8 9 1024.9 - 0.0
20/03:00am 2.5 -1.2 2.2 98 0.1 NW 11 13 6 7 1024.9 - 0.0
20/02:30am 2.8 -1.6 2.5 98 0.1 NW 15 17 8 9 1025.0 - 0.0
20/02:00am 3.1 -0.5 2.8 98 0.1 WNW 11 15 6 8 1025.1 - 0.0
20/01:30am 4.2 0.0 3.9 98 0.1 WNW 15 17 8 9 1025.2 - 0.0
20/01:00am 3.1 -0.9 2.8 98 0.1 WNW 13 17 7 9 1025.3 - 0.0
20/12:30am 3.9 0.0 3.6 98 0.1 NW 13 17 7 9 1025.3 - 0.0
20/12:00am 3.6 -0.4 3.0 96 0.2 WNW 13 15 7 8 1025.5 - 0.0
 
Date/Time
EST
Temp
°C
App
Temp
°C
Dew
Point
°C
Rel
Hum
%
Delta-T
°C
Wind Press
QNH
hPa
Press
MSL
hPa
Rain since
9am
mm
Dir  Spd
km/h
Gust
km/h
Spd
kts
Gust
kts
19/11:30pm 4.1 0.3 3.7 97 0.2 WNW 13 17 7 9 1025.7 - 0.0
19/11:00pm 3.4 -0.6 3.0 97 0.2 WNW 13 15 7 8 1025.6 - 0.0
19/10:30pm 3.8 -0.1 3.2 96 0.2 NW 13 15 7 8 1025.6 - 0.0
19/10:00pm 3.2 -0.9 2.5 95 0.3 NW 13 13 7 7 1025.7 - 0.0
19/09:30pm 4.3 0.8 3.3 93 0.4 WNW 11 13 6 7 1025.6 - 0.0
19/09:00pm 4.8 1.0 4.1 95 0.3 NW 13 15 7 8 1025.6 - 0.0
19/08:30pm 5.0 1.9 3.8 92 0.5 WNW 9 13 5 7 1025.7 - 0.0
19/08:00pm 4.8 1.2 3.1 89 0.7 WNW 11 13 6 7 1025.7 - 0.0
19/07:30pm 6.3 3.3 4.3 87 0.9 WNW 9 13 5 7 1025.8 - 0.0
19/07:00pm 7.0 3.7 4.8 86 1.0 WNW 11 13 6 7 1025.7 - 0.0
19/06:30pm 7.7 4.2 5.3 85 1.1 WNW 13 17 7 9 1025.5 - 0.0
19/06:00pm 8.0 4.5 5.5 84 1.1 W 13 19 7 10 1025.2 - 0.0
19/05:30pm 8.6 5.2 5.9 83 1.2 W 13 20 7 11 1024.9 - 0.0
19/05:00pm 9.2 4.9 5.4 77 1.7 W 17 22 9 12 1024.8 - 0.0
19/04:30pm 10.1 5.9 5.5 73 2.1 W 17 24 9 13 1024.6 - 0.0
19/04:00pm 10.6 7.0 6.6 76 1.9 WNW 15 19 8 10 1024.4 - 0.0
19/03:30pm 10.2 6.5 6.2 76 1.9 W 15 22 8 12 1024.4 - 0.0
19/03:00pm 9.9 6.1 5.9 76 1.8 WSW 15 20 8 11 1024.4 - 0.0
19/02:30pm 11.2 5.6 5.3 67 2.7 W 24 35 13 19 1024.0 - 0.0
19/02:00pm 11.2 5.3 5.7 69 2.5 W 26 35 14 19 1023.9 - 0.0
19/01:30pm 11.2 6.1 5.9 70 2.5 W 22 32 12 17 1024.2 - 0.0
19/01:00pm 12.0 6.6 6.5 69 2.6 W 24 32 13 17 1024.2 - 0.0
19/12:30pm 11.1 5.4 6.5 73 2.2 W 26 35 14 19 1024.3 - 0.0
19/12:00pm 10.7 5.3 6.3 74 2.0 W 24 33 13 18 1024.6 - 0.0
19/11:30am 10.4 4.5 6.0 74 2.0 W 26 37 14 20 1024.7 - 0.0
19/11:00am 10.1 4.7 6.3 77 1.8 W 24 33 13 18 1025.1 - 0.0
19/10:30am 9.4 4.7 5.9 79 1.6 W 20 32 11 17 1025.1 - 0.0
19/10:00am 9.1 4.0 6.0 81 1.4 W 22 30 12 16 1024.9 - 0.0
19/09:30am 8.2 3.0 5.5 83 1.2 W 22 30 12 16 1024.5 - 0.0
19/09:00am 7.7 2.4 5.2 84 1.1 W 22 30 12 16 1024.3 - 1.0
19/08:30am 6.5 2.5 4.7 88 0.8 WNW 15 20 8 11 1024.0 - 1.0
19/08:00am 5.5 1.0 4.2 91 0.5 WNW 17 22 9 12 1023.6 - 1.0
19/07:30am 4.3 0.4 3.3 93 0.4 NW 13 17 7 9 1023.4 - 1.0
19/07:00am 4.5 0.2 3.2 91 0.5 NW 15 20 8 11 1022.9 - 1.0
19/06:30am 5.3 0.7 3.8 90 0.6 WNW 17 24 9 13 1022.6 - 1.0
19/06:00am 5.3 0.1 3.8 90 0.6 WNW 20 28 11 15 1022.1 - 1.0
19/05:30am 5.4 0.5 3.9 90 0.6 W 19 26 10 14 1021.9 - 1.0
19/05:00am 5.7 1.5 3.9 88 0.8 WNW 15 22 8 12 1021.8 - 1.0
19/04:30am 5.8 1.3 4.0 88 0.8 W 17 24 9 13 1021.8 - 1.0
19/04:00am 5.6 1.8 3.8 88 0.8 W 13 20 7 11 1021.7 - 1.0
19/03:30am 6.0 1.9 4.3 89 0.7 W 15 26 8 14 1021.6 - 1.0
19/03:00am 5.8 2.0 4.0 88 0.8 WNW 13 20 7 11 1021.4 - 1.0
19/02:30am 5.9 1.3 3.9 87 0.8 WNW 17 20 9 11 1021.6 - 1.0
19/02:00am 6.4 0.9 4.1 85 1.0 WNW 22 28 12 15 1021.4 - 1.0
19/01:30am 6.5 1.4 4.2 85 1.0 W 20 28 11 15 1021.2 - 1.0
19/01:00am 6.6 0.8 4.3 85 1.0 W 24 35 13 19 1020.9 - 1.0
19/12:30am 6.9 1.4 4.2 83 1.2 W 22 32 12 17 1021.1 - 1.0
19/12:00am 6.7 2.3 4.5 86 0.9 W 17 24 9 13 1020.8 - 1.0
 
Date/Time
EST
Temp
°C
App
Temp
°C
Dew
Point
°C
Rel
Hum
%
Delta-T
°C
Wind Press
QNH
hPa
Press
MSL
hPa
Rain since
9am
mm
Dir  Spd
km/h
Gust
km/h
Spd
kts
Gust
kts
18/11:30pm 6.4 2.3 4.6 88 0.8 W 15 20 8 11 1021.1 - 1.0
18/11:00pm 6.7 2.3 4.7 87 0.9 W 17 24 9 13 1021.1 - 1.0
18/10:30pm 7.1 2.6 4.4 83 1.2 WNW 17 20 9 11 1020.8 - 1.0
18/10:00pm 7.4 3.0 4.7 83 1.2 W 17 20 9 11 1020.8 - 0.6
18/09:30pm 7.9 3.1 4.8 81 1.4 WNW 19 26 10 14 1020.4 - 0.6
18/09:00pm 7.7 4.1 5.2 84 1.1 WNW 13 17 7 9 1020.2 - 0.6
18/08:30pm 7.9 3.3 5.7 86 1.0 WNW 19 24 10 13 1020.2 - 0.6
18/08:00pm 7.9 3.8 6.2 89 0.8 WNW 17 22 9 12 1020.0 - 0.6
18/07:30pm 8.2 2.7 6.0 86 1.0 WNW 24 35 13 19 1020.1 - 0.6
18/07:00pm 8.2 1.5 5.7 84 1.1 W 30 41 16 22 1019.8 - 0.4
18/06:30pm 8.8 3.3 5.7 81 1.4 W 24 35 13 19 1019.2 - 0.4
18/06:00pm 9.1 3.7 6.4 83 1.2 W 24 35 13 19 1018.9 - 0.4
18/05:30pm 9.2 3.5 6.6 84 1.2 WNW 26 39 14 21 1018.0 - 0.4
18/05:00pm 9.3 3.3 6.9 85 1.1 WNW 28 41 15 22 1017.5 - 0.4
18/04:30pm 9.9 3.0 6.4 79 1.6 WSW 32 50 17 27 1017.1 - 0.2
18/04:23pm 10.7 6.1 6.6 76 1.9 W 20 52 11 28 1016.9 - 0.2
18/04:21pm 11.1 7.2 7.0 76 2.0 W 17 52 9 28 1016.7 - 0.2
18/04:00pm 11.1 8.2 8.0 81 1.5 WSW 13 17 7 9 1016.2 - 0.2
18/03:30pm 11.5 8.4 7.4 76 2.0 W 13 19 7 10 1015.9 - 0.2
18/03:00pm 10.9 7.5 7.8 81 1.5 WNW 15 26 8 14 1015.7 - 0.2
18/02:30pm 10.5 5.0 7.4 81 1.5 W 26 43 14 23 1015.8 - 0.0
18/02:00pm 10.5 4.6 7.7 83 1.3 WSW 28 39 15 21 1015.8 - 0.0
18/01:30pm 12.3 6.8 7.6 73 2.3 WSW 26 35 14 19 1015.5 - 0.0
18/01:21pm 13.5 9.6 7.1 65 3.1 WNW 17 35 9 19 1015.3 - 0.0
18/01:00pm 14.9 12.3 6.2 56 4.2 WNW 9 13 5 7 1015.2 - 0.0
18/12:30pm 14.4 12.6 7.0 61 3.6 N 6 9 3 5 1015.6 - 0.0
18/12:00pm 13.5 11.6 6.6 63 3.3 NNW 6 9 3 5 1015.9 - 0.0
18/11:30am 13.9 12.0 7.7 66 3.1 NNE 7 11 4 6 1016.1 - 0.0
18/11:00am 11.9 11.1 8.0 77 1.9 NNE 2 7 1 4 1016.5 - 0.0
18/10:30am 9.3 7.4 6.7 84 1.2 NNE 6 7 3 4 1016.7 - 0.0
18/10:00am 7.8 7.0 6.3 90 0.7 CALM 0 0 0 0 1016.9 - 0.0
18/09:30am 7.0 4.9 5.6 91 0.6 WSW 6 9 3 5 1016.9 - 0.0
18/09:00am 6.4 4.1 5.0 91 0.6 W 6 9 3 5 1017.0 - 0.2
18/08:30am 5.3 2.7 4.3 93 0.4 SSW 7 9 4 5 1016.9 - 0.2
18/08:00am 5.8 3.1 3.6 86 0.9 NW 7 11 4 6 1016.7 - 0.2
18/07:30am 6.3 3.3 4.0 85 1.0 NNW 9 15 5 8 1016.8 - 0.2
18/07:00am 4.0 1.2 3.3 95 0.3 NNE 7 9 4 5 1016.9 - 0.2
18/06:30am 3.5 1.5 2.5 93 0.4 S 2 7 1 4 1017.3 - 0.2
18/06:00am 4.3 0.7 2.8 90 0.6 NE 11 17 6 9 1017.3 - 0.2
18/05:30am 6.6 3.0 4.9 89 0.7 NNW 13 15 7 8 1017.3 - 0.2
18/05:00am 3.4 0.2 3.0 97 0.2 NW 9 11 5 6 1017.5 - 0.2
18/04:30am 3.1 1.1 2.5 96 0.2 N 2 6 1 3 1017.8 - 0.2
18/04:00am 4.0 1.3 3.6 97 0.2 NNW 7 9 4 5 1018.0 - 0.2
18/03:30am 3.1 1.5 2.5 96 0.2 CALM 0 0 0 0 1018.2 - 0.2
18/03:00am 3.0 1.4 2.3 95 0.3 CALM 0 0 0 0 1018.5 - 0.2
18/02:30am 5.3 2.8 4.7 96 0.3 WNW 7 11 4 6 1018.5 - 0.2
18/02:00am 4.0 1.2 3.1 94 0.4 WNW 7 9 4 5 1018.5 - 0.2
18/01:30am 4.9 2.0 4.5 97 0.2 NW 9 11 5 6 1018.7 - 0.2
18/01:14am 4.5 1.5 4.1 97 0.2 NW 9 11 5 6 1018.9 - 0.2
18/01:00am 4.3 1.8 3.9 97 0.2 WNW 6 9 3 5 1019.1 - 0.2
18/12:49am 3.6 1.0 3.0 96 0.2 WSW 6 7 3 4 1019.1 - 0.2
18/12:30am 4.8 2.2 4.2 96 0.3 NW 7 7 4 4 1019.2 - 0.2
18/12:00am 4.6 2.1 3.9 95 0.3 WNW 6 7 3 4 1019.6 - 0.2
 
Date/Time
EST
Temp
°C
App
Temp
°C
Dew
Point
°C
Rel
Hum
%
Delta-T
°C
Wind Press
QNH
hPa
Press
MSL
hPa
Rain since
9am
mm
Dir  Spd
km/h
Gust
km/h
Spd
kts
Gust
kts
17/11:30pm 5.2 4.0 4.5 95 0.3 CALM 0 6 0 3 1020.1 - 0.2
17/11:00pm 5.3 4.1 4.6 95 0.3 CALM 0 0 0 0 1020.3 - 0.2
17/10:30pm 5.5 3.5 4.5 93 0.4 NW 4 6 2 3 1020.3 - 0.2
17/10:00pm 6.4 5.4 5.4 93 0.4 CALM 0 0 0 0 1020.6 - 0.2

Other formats

Comma delimited format used in spreadsheet applications
http://www.bom.gov.au/fwo/IDV60801/IDV60801.95907.axf

JavaScript Object Notation format (JSON) in row-major order
http://www.bom.gov.au/fwo/IDV60801/IDV60801.95907.json

Data quality

Most of these data are generated automatically and are frequently updated. Quality checks on data are not normally performed. It is possible for incorrect values to appear. Refer to information at About Latest Weather Observations and please check the disclaimer before using these data.